sensor_id;sensor_type;location;lat;lon;timestamp;pressure;altitude;pressure_sealevel;temperature;humidity
39265;BME280;42646;51.910;7.724;2023-02-23T00:01:39;100611.41;;;8.88;100.00
39265;BME280;42646;51.910;7.724;2023-02-23T00:04:07;100608.75;;;8.88;100.00
39265;BME280;42646;51.910;7.724;2023-02-23T00:06:36;100610.44;;;8.89;100.00
39265;BME280;42646;51.910;7.724;2023-02-23T00:09:05;100605.97;;;8.89;100.00
39265;BME280;42646;51.910;7.724;2023-02-23T00:11:37;100609.50;;;8.90;100.00
39265;BME280;42646;51.910;7.724;2023-02-23T00:14:05;100609.50;;;8.90;100.00
39265;BME280;42646;51.910;7.724;2023-02-23T00:16:33;100607.69;;;8.90;100.00
39265;BME280;42646;51.910;7.724;2023-02-23T00:19:02;100606.72;;;8.91;100.00
39265;BME280;42646;51.910;7.724;2023-02-23T00:21:33;100605.72;;;8.92;100.00
39265;BME280;42646;51.910;7.724;2023-02-23T00:24:03;100602.94;;;8.94;100.00
39265;BME280;42646;51.910;7.724;2023-02-23T00:26:34;100602.09;;;8.93;100.00
39265;BME280;42646;51.910;7.724;2023-02-23T00:29:07;100604.75;;;8.93;100.00
39265;BME280;42646;51.910;7.724;2023-02-23T00:31:36;100602.09;;;8.93;100.00
39265;BME280;42646;51.910;7.724;2023-02-23T00:34:05;100600.44;;;8.92;100.00
39265;BME280;42646;51.910;7.724;2023-02-23T00:36:34;100599.44;;;8.93;100.00
39265;BME280;42646;51.910;7.724;2023-02-23T00:39:05;100602.25;;;8.92;100.00
39265;BME280;42646;51.910;7.724;2023-02-23T00:41:45;100600.44;;;8.92;100.00
39265;BME280;42646;51.910;7.724;2023-02-23T00:44:14;100600.44;;;8.92;100.00
39265;BME280;42646;51.910;7.724;2023-02-23T00:46:43;100598.63;;;8.93;100.00
39265;BME280;42646;51.910;7.724;2023-02-23T00:49:12;100602.94;;;8.94;100.00
39265;BME280;42646;51.910;7.724;2023-02-23T00:51:40;100603.78;;;8.94;100.00
39265;BME280;42646;51.910;7.724;2023-02-23T00:54:11;100598.63;;;8.93;100.00
39265;BME280;42646;51.910;7.724;2023-02-23T00:56:40;100602.25;;;8.92;100.00
39265;BME280;42646;51.910;7.724;2023-02-23T00:59:09;100595.38;;;8.89;100.00
39265;BME280;42646;51.910;7.724;2023-02-23T01:01:39;100598.88;;;8.90;100.00
39265;BME280;42646;51.910;7.724;2023-02-23T01:04:09;100598.88;;;8.90;100.00
39265;BME280;42646;51.910;7.724;2023-02-23T01:06:37;100598.03;;;8.89;100.00
39265;BME280;42646;51.910;7.724;2023-02-23T01:09:07;100599.84;;;8.89;100.00
39265;BME280;42646;51.910;7.724;2023-02-23T01:11:37;100608.75;;;8.88;100.00
39265;BME280;42646;51.910;7.724;2023-02-23T01:14:06;100600.81;;;8.88;100.00
39265;BME280;42646;51.910;7.724;2023-02-23T01:16:35;100606.94;;;8.88;100.00
39265;BME280;42646;51.910;7.724;2023-02-23T01:19:06;100606.13;;;8.88;100.00
39265;BME280;42646;51.910;7.724;2023-02-23T01:21:35;100609.59;;;8.88;100.00
39265;BME280;42646;51.910;7.724;2023-02-23T01:24:05;100603.59;;;8.86;100.00
39265;BME280;42646;51.910;7.724;2023-02-23T01:26:35;100606.25;;;8.86;100.00
39265;BME280;42646;51.910;7.724;2023-02-23T01:29:06;100614.06;;;8.88;100.00
39265;BME280;42646;51.910;7.724;2023-02-23T01:31:37;100608.06;;;8.86;100.00
39265;BME280;42646;51.910;7.724;2023-02-23T01:34:08;100608.06;;;8.86;100.00
39265;BME280;42646;51.910;7.724;2023-02-23T01:36:39;100602.75;;;8.86;100.00
39265;BME280;42646;51.910;7.724;2023-02-23T01:39:10;100607.94;;;8.87;100.00
39265;BME280;42646;51.910;7.724;2023-02-23T01:41:39;100599.13;;;8.87;100.00
39265;BME280;42646;51.910;7.724;2023-02-23T01:47:27;100599.13;;;8.87;100.00
39265;BME280;42646;51.910;7.724;2023-02-23T01:49:55;100602.63;;;8.87;100.00
39265;BME280;42646;51.910;7.724;2023-02-23T01:52:23;100605.13;;;8.89;100.00
39265;BME280;42646;51.910;7.724;2023-02-23T01:54:52;100606.25;;;8.86;100.00
39265;BME280;42646;51.910;7.724;2023-02-23T01:57:22;100600.94;;;8.86;100.00
39265;BME280;42646;51.910;7.724;2023-02-23T01:59:53;100600.25;;;8.84;100.00
39265;BME280;42646;51.910;7.724;2023-02-23T02:02:24;100601.09;;;8.85;100.00
39265;BME280;42646;51.910;7.724;2023-02-23T02:05:02;100593.13;;;8.85;100.00
39265;BME280;42646;51.910;7.724;2023-02-23T02:07:33;100599.41;;;8.83;100.00
39265;BME280;42646;51.910;7.724;2023-02-23T02:10:01;100601.09;;;8.85;100.00
39265;BME280;42646;51.910;7.724;2023-02-23T02:12:58;100593.97;;;8.85;100.00
39265;BME280;42646;51.910;7.724;2023-02-23T02:15:34;100590.47;;;8.85;100.00
39265;BME280;42646;51.910;7.724;2023-02-23T02:18:10;100597.44;;;8.86;100.00
39265;BME280;42646;51.910;7.724;2023-02-23T02:21:13;100600.09;;;8.86;100.00
39265;BME280;42646;51.910;7.724;2023-02-23T02:27:00;100595.63;;;8.86;100.00
39265;BME280;42646;51.910;7.724;2023-02-23T02:33:02;100604.72;;;8.83;100.00
39265;BME280;42646;51.910;7.724;2023-02-23T02:35:53;100598.53;;;8.83;100.00
39265;BME280;42646;51.910;7.724;2023-02-23T02:38:41;100595.88;;;8.83;100.00
39265;BME280;42646;51.910;7.724;2023-02-23T02:41:23;100595.03;;;8.82;100.00
39265;BME280;42646;51.910;7.724;2023-02-23T02:43:57;100590.72;;;8.81;100.00
39265;BME280;42646;51.910;7.724;2023-02-23T02:46:36;100589.03;;;8.80;100.00
39265;BME280;42646;51.910;7.724;2023-02-23T02:49:09;100588.91;;;8.82;100.00
39265;BME280;42646;51.910;7.724;2023-02-23T02:51:43;100583.59;;;8.82;100.00
39265;BME280;42646;51.910;7.724;2023-02-23T02:54:22;100582.75;;;8.81;100.00
39265;BME280;42646;51.910;7.724;2023-02-23T02:56:53;100591.56;;;8.82;100.00
39265;BME280;42646;51.910;7.724;2023-02-23T02:59:25;100584.56;;;8.81;100.00
39265;BME280;42646;51.910;7.724;2023-02-23T03:02:16;100583.72;;;8.80;100.00
39265;BME280;42646;51.910;7.724;2023-02-23T03:05:12;100582.06;;;8.79;100.00
39265;BME280;42646;51.910;7.724;2023-02-23T03:08:06;100579.41;;;8.79;100.00
39265;BME280;42646;51.910;7.724;2023-02-23T03:10:58;100584.72;;;8.79;100.00
39265;BME280;42646;51.910;7.724;2023-02-23T03:13:59;100587.34;;;8.79;100.00
39265;BME280;42646;51.910;7.724;2023-02-23T03:16:52;100587.22;;;8.81;100.00
39265;BME280;42646;51.910;7.724;2023-02-23T03:19:47;100585.53;;;8.80;100.00
39265;BME280;42646;51.910;7.724;2023-02-23T03:22:39;100586.38;;;8.80;100.00
39265;BME280;42646;51.910;7.724;2023-02-23T03:25:45;100585.41;;;8.81;100.00
39265;BME280;42646;51.910;7.724;2023-02-23T03:28:36;100589.88;;;8.81;100.00
39265;BME280;42646;51.910;7.724;2023-02-23T03:31:30;100589.03;;;8.80;100.00
39265;BME280;42646;51.910;7.724;2023-02-23T03:34:24;100585.69;;;8.78;100.00
39265;BME280;42646;51.910;7.724;2023-02-23T03:37:16;100582.19;;;8.78;100.00
39265;BME280;42646;51.910;7.724;2023-02-23T03:40:10;100593.63;;;8.78;100.00
39265;BME280;42646;51.910;7.724;2023-02-23T03:42:58;100592.81;;;8.78;100.00
39265;BME280;42646;51.910;7.724;2023-02-23T03:45:47;100591.00;;;8.78;100.00
39265;BME280;42646;51.910;7.724;2023-02-23T03:48:38;100586.63;;;8.77;100.00
39265;BME280;42646;51.910;7.724;2023-02-23T03:51:31;100588.44;;;8.77;100.00
39265;BME280;42646;51.910;7.724;2023-02-23T03:54:25;100591.09;;;8.77;100.00
39265;BME280;42646;51.910;7.724;2023-02-23T03:57:13;100586.75;;;8.76;100.00
39265;BME280;42646;51.910;7.724;2023-02-23T04:00:08;100593.75;;;8.77;100.00
39265;BME280;42646;51.910;7.724;2023-02-23T04:02:57;100590.25;;;8.76;100.00
39265;BME280;42646;51.910;7.724;2023-02-23T04:05:43;100587.59;;;8.76;100.00
39265;BME280;42646;51.910;7.724;2023-02-23T04:08:35;100586.75;;;8.76;100.00
39265;BME280;42646;51.910;7.724;2023-02-23T04:11:25;100586.63;;;8.77;100.00
39265;BME280;42646;51.910;7.724;2023-02-23T04:14:17;100588.19;;;8.80;100.00
39265;BME280;42646;51.910;7.724;2023-02-23T04:16:46;100588.19;;;8.80;100.00
39265;BME280;42646;51.910;7.724;2023-02-23T04:19:15;100591.56;;;8.82;100.00
39265;BME280;42646;51.910;7.724;2023-02-23T04:21:43;100595.03;;;8.82;100.00
39265;BME280;42646;51.910;7.724;2023-02-23T04:24:11;100595.88;;;8.83;100.00
39265;BME280;42646;51.910;7.724;2023-02-23T04:26:38;100592.28;;;8.84;100.00
39265;BME280;42646;51.910;7.724;2023-02-23T04:29:06;100589.63;;;8.84;100.00
39265;BME280;42646;51.910;7.724;2023-02-23T04:31:36;100591.31;;;8.85;100.00
39265;BME280;42646;51.910;7.724;2023-02-23T04:34:04;100595.78;;;8.85;100.00
39265;BME280;42646;51.910;7.724;2023-02-23T04:36:37;100593.97;;;8.85;100.00
39265;BME280;42646;51.910;7.724;2023-02-23T04:39:06;100595.78;;;8.85;100.00
39265;BME280;42646;51.910;7.724;2023-02-23T04:41:35;100597.59;;;8.84;100.00
39265;BME280;42646;51.910;7.724;2023-02-23T04:44:04;100593.22;;;8.83;100.00
39265;BME280;42646;51.910;7.724;2023-02-23T04:46:35;100599.50;;;8.82;100.00
39265;BME280;42646;51.910;7.724;2023-02-23T04:49:03;100598.81;;;8.80;100.00
39265;BME280;42646;51.910;7.724;2023-02-23T04:51:31;100602.44;;;8.79;100.00
39265;BME280;42646;51.910;7.724;2023-02-23T04:54:03;100601.59;;;8.78;100.00
39265;BME280;42646;51.910;7.724;2023-02-23T04:56:31;100605.09;;;8.79;100.00
39265;BME280;42646;51.910;7.724;2023-02-23T04:59:03;100598.94;;;8.78;100.00
39265;BME280;42646;51.910;7.724;2023-02-23T05:01:30;100599.06;;;8.77;100.00
39265;BME280;42646;51.910;7.724;2023-02-23T05:04:02;100601.59;;;8.78;100.00
39265;BME280;42646;51.910;7.724;2023-02-23T05:06:35;100604.25;;;8.78;100.00
39265;BME280;42646;51.910;7.724;2023-02-23T05:09:05;100594.59;;;8.77;100.00
39265;BME280;42646;51.910;7.724;2023-02-23T05:11:32;100607.59;;;8.80;100.00
39265;BME280;42646;51.910;7.724;2023-02-23T05:14:02;100600.63;;;8.79;100.00
39265;BME280;42646;51.910;7.724;2023-02-23T05:16:31;100599.78;;;8.79;100.00
39265;BME280;42646;51.910;7.724;2023-02-23T05:19:49;100604.13;;;8.80;100.00
39265;BME280;42646;51.910;7.724;2023-02-23T05:22:19;100596.28;;;8.78;100.00
39265;BME280;42646;51.910;7.724;2023-02-23T05:24:47;100598.94;;;8.78;100.00
39265;BME280;42646;51.910;7.724;2023-02-23T05:27:17;100601.59;;;8.78;100.00
39265;BME280;42646;51.910;7.724;2023-02-23T05:29:45;100608.72;;;8.78;100.00
39265;BME280;42646;51.910;7.724;2023-02-23T05:32:13;100606.06;;;8.78;100.00
39265;BME280;42646;51.910;7.724;2023-02-23T05:34:41;100611.38;;;8.78;100.00
39265;BME280;42646;51.910;7.724;2023-02-23T05:37:09;100611.38;;;8.78;100.00
39265;BME280;42646;51.910;7.724;2023-02-23T05:39:38;100623.75;;;8.77;100.00
39265;BME280;42646;51.910;7.724;2023-02-23T05:42:07;100614.84;;;8.78;100.00
39265;BME280;42646;51.910;7.724;2023-02-23T05:44:36;100621.09;;;8.77;100.00
39265;BME280;42646;51.910;7.724;2023-02-23T05:47:05;100613.16;;;8.77;100.00
39265;BME280;42646;51.910;7.724;2023-02-23T05:49:33;100612.31;;;8.77;100.00
39265;BME280;42646;51.910;7.724;2023-02-23T05:52:03;100620.28;;;8.77;100.00
39265;BME280;42646;51.910;7.724;2023-02-23T05:54:59;100615.81;;;8.77;100.00
39265;BME280;42646;51.910;7.724;2023-02-23T05:57:27;100622.09;;;8.76;100.00
39265;BME280;42646;51.910;7.724;2023-02-23T05:59:56;100619.44;;;8.76;100.00
39265;BME280;42646;51.910;7.724;2023-02-23T06:02:29;100619.44;;;8.76;100.00
39265;BME280;42646;51.910;7.724;2023-02-23T06:05:01;100622.22;;;8.75;100.00
39265;BME280;42646;51.910;7.724;2023-02-23T06:07:29;100627.66;;;8.73;100.00
39265;BME280;42646;51.910;7.724;2023-02-23T06:09:57;100626.81;;;8.73;100.00
39265;BME280;42646;51.910;7.724;2023-02-23T06:12:25;100625.00;;;8.73;100.00
39265;BME280;42646;51.910;7.724;2023-02-23T06:14:55;100634.78;;;8.73;100.00
39265;BME280;42646;51.910;7.724;2023-02-23T06:17:22;100637.44;;;8.73;100.00
39265;BME280;42646;51.910;7.724;2023-02-23T06:19:50;100625.97;;;8.72;100.00
39265;BME280;42646;51.910;7.724;2023-02-23T06:22:18;100633.09;;;8.72;100.00
39265;BME280;42646;51.910;7.724;2023-02-23T06:24:45;100636.59;;;8.72;100.00
39265;BME280;42646;51.910;7.724;2023-02-23T06:27:14;100633.09;;;8.72;100.00
39265;BME280;42646;51.910;7.724;2023-02-23T06:29:42;100631.28;;;8.72;100.00
39265;BME280;42646;51.910;7.724;2023-02-23T06:32:12;100639.25;;;8.72;100.00
39265;BME280;42646;51.910;7.724;2023-02-23T06:34:45;100645.47;;;8.71;100.00
39265;BME280;42646;51.910;7.724;2023-02-23T06:37:40;100649.13;;;8.70;100.00
39265;BME280;42646;51.910;7.724;2023-02-23T06:40:10;100649.13;;;8.70;100.00
39265;BME280;42646;51.910;7.724;2023-02-23T06:42:39;100659.72;;;8.70;100.00
39265;BME280;42646;51.910;7.724;2023-02-23T06:45:09;100657.06;;;8.70;100.00
39265;BME280;42646;51.910;7.724;2023-02-23T06:47:39;100661.41;;;8.71;100.00
39265;BME280;42646;51.910;7.724;2023-02-23T06:50:09;100662.38;;;8.70;100.00
39265;BME280;42646;51.910;7.724;2023-02-23T06:52:37;100663.34;;;8.69;100.00
39265;BME280;42646;51.910;7.724;2023-02-23T06:55:07;100663.34;;;8.69;100.00
39265;BME280;42646;51.910;7.724;2023-02-23T06:57:36;100671.31;;;8.69;100.00
39265;BME280;42646;51.910;7.724;2023-02-23T07:00:31;100666.97;;;8.68;100.00
39265;BME280;42646;51.910;7.724;2023-02-23T07:03:27;100675.06;;;8.67;100.00
39265;BME280;42646;51.910;7.724;2023-02-23T07:05:55;100669.75;;;8.67;100.00
39265;BME280;42646;51.910;7.724;2023-02-23T07:08:51;100675.16;;;8.65;100.00
39265;BME280;42646;51.910;7.724;2023-02-23T07:11:19;100676.13;;;8.64;100.00
39265;BME280;42646;51.910;7.724;2023-02-23T07:13:47;100677.94;;;8.64;100.00
39265;BME280;42646;51.910;7.724;2023-02-23T07:16:14;100684.22;;;8.63;100.00
39265;BME280;42646;51.910;7.724;2023-02-23T07:18:45;100681.56;;;8.63;100.00
39265;BME280;42646;51.910;7.724;2023-02-23T07:21:12;100686.88;;;8.63;100.00
39265;BME280;42646;51.910;7.724;2023-02-23T07:23:40;100687.72;;;8.63;100.00
39265;BME280;42646;51.910;7.724;2023-02-23T07:26:08;100691.22;;;8.64;100.00
39265;BME280;42646;51.910;7.724;2023-02-23T07:28:41;100684.22;;;8.63;100.00
39265;BME280;42646;51.910;7.724;2023-02-23T07:31:09;100699.16;;;8.64;100.00
39265;BME280;42646;51.910;7.724;2023-02-23T07:33:37;100695.69;;;8.63;100.00
39265;BME280;42646;51.910;7.724;2023-02-23T07:36:07;100691.22;;;8.64;100.00
39265;BME280;42646;51.910;7.724;2023-02-23T07:38:36;100692.06;;;8.64;100.00
39265;BME280;42646;51.910;7.724;2023-02-23T07:41:04;100699.16;;;8.64;100.00
39265;BME280;42646;51.910;7.724;2023-02-23T07:43:57;100694.69;;;8.64;100.00
39265;BME280;42646;51.910;7.724;2023-02-23T07:46:30;100706.28;;;8.63;100.00
39265;BME280;42646;51.910;7.724;2023-02-23T07:49:22;100699.16;;;8.64;100.00
39265;BME280;42646;51.910;7.724;2023-02-23T07:51:52;100706.28;;;8.63;100.00
39265;BME280;42646;51.910;7.724;2023-02-23T07:54:19;100700.13;;;8.63;100.00
39265;BME280;42646;51.910;7.724;2023-02-23T07:56:50;100705.31;;;8.64;100.00
39265;BME280;42646;51.910;7.724;2023-02-23T07:59:20;100705.31;;;8.64;100.00
39265;BME280;42646;51.910;7.724;2023-02-23T08:01:49;100716.88;;;8.63;100.00
39265;BME280;42646;51.910;7.724;2023-02-23T08:04:18;100717.72;;;8.64;100.00
39265;BME280;42646;51.910;7.724;2023-02-23T08:06:47;100718.56;;;8.64;100.00
39265;BME280;42646;51.910;7.724;2023-02-23T08:09:16;100719.41;;;8.65;100.00
39265;BME280;42646;51.910;7.724;2023-02-23T08:11:46;100716.75;;;8.65;100.00
39265;BME280;42646;51.910;7.724;2023-02-23T08:14:14;100718.47;;;8.66;100.00
39265;BME280;42646;51.910;7.724;2023-02-23T08:16:42;100725.56;;;8.65;100.00
39265;BME280;42646;51.910;7.724;2023-02-23T08:19:10;100730.00;;;8.65;100.00
39265;BME280;42646;51.910;7.724;2023-02-23T08:21:38;100729.06;;;8.66;100.00
39265;BME280;42646;51.910;7.724;2023-02-23T08:24:10;100730.00;;;8.65;100.00
39265;BME280;42646;51.910;7.724;2023-02-23T08:26:39;100732.81;;;8.63;100.00
39265;BME280;42646;51.910;7.724;2023-02-23T08:29:09;100731.25;;;8.61;100.00
39265;BME280;42646;51.910;7.724;2023-02-23T08:31:37;100734.97;;;8.58;100.00
39265;BME280;42646;51.910;7.724;2023-02-23T08:34:05;100741.13;;;8.59;100.00
39265;BME280;42646;51.910;7.724;2023-02-23T08:36:38;100741.97;;;8.59;100.00
39265;BME280;42646;51.910;7.724;2023-02-23T08:39:08;100735.81;;;8.59;100.00
39265;BME280;42646;51.910;7.724;2023-02-23T08:41:39;100742.94;;;8.58;100.00
39265;BME280;42646;51.910;7.724;2023-02-23T08:44:07;100746.41;;;8.59;100.00
39265;BME280;42646;51.910;7.724;2023-02-23T08:46:35;100741.97;;;8.59;100.00
39265;BME280;42646;51.910;7.724;2023-02-23T08:49:04;100748.09;;;8.60;100.00
39265;BME280;42646;51.910;7.724;2023-02-23T08:51:32;100752.56;;;8.59;100.00
39265;BME280;42646;51.910;7.724;2023-02-23T08:54:02;100752.69;;;8.57;100.00
39265;BME280;42646;51.910;7.724;2023-02-23T08:56:35;100748.38;;;8.56;100.00
39265;BME280;42646;51.910;7.724;2023-02-23T08:59:05;100754.50;;;8.57;100.00
39265;BME280;42646;51.910;7.724;2023-02-23T09:01:32;100754.50;;;8.57;100.00
39265;BME280;42646;51.910;7.724;2023-02-23T09:04:00;100758.00;;;8.57;100.00
39265;BME280;42646;51.910;7.724;2023-02-23T09:06:28;100759.69;;;8.59;100.00
39265;BME280;42646;51.910;7.724;2023-02-23T09:08:56;100758.84;;;8.58;100.00
39265;BME280;42646;51.910;7.724;2023-02-23T09:11:25;100759.69;;;8.59;100.00
39265;BME280;42646;51.910;7.724;2023-02-23T09:13:56;100759.69;;;8.59;100.00
39265;BME280;42646;51.910;7.724;2023-02-23T09:16:50;100763.19;;;8.59;100.00
39265;BME280;42646;51.910;7.724;2023-02-23T09:19:17;100766.66;;;8.60;100.00
39265;BME280;42646;51.910;7.724;2023-02-23T09:21:46;100765.72;;;8.61;100.00
39265;BME280;42646;51.910;7.724;2023-02-23T09:24:14;100770.06;;;8.62;100.00
39265;BME280;42646;51.910;7.724;2023-02-23T09:26:44;100772.56;;;8.63;100.00
39265;BME280;42646;51.910;7.724;2023-02-23T09:29:12;100772.44;;;8.65;100.00
39265;BME280;42646;51.910;7.724;2023-02-23T09:31:41;100768.84;;;8.66;100.00
39265;BME280;42646;51.910;7.724;2023-02-23T09:34:11;100768.59;;;8.69;100.00
39265;BME280;42646;51.910;7.724;2023-02-23T09:36:38;100765.94;;;8.69;100.00
39265;BME280;42646;51.910;7.724;2023-02-23T09:39:06;100777.25;;;8.71;100.00
39265;BME280;42646;51.910;7.724;2023-02-23T09:44:50;100775.56;;;8.70;100.00
39265;BME280;42646;51.910;7.724;2023-02-23T09:47:29;100781.97;;;8.67;100.00
39265;BME280;42646;51.910;7.724;2023-02-23T09:50:16;100783.91;;;8.65;100.00
39265;BME280;42646;51.910;7.724;2023-02-23T09:53:34;100786.69;;;8.64;100.00
39265;BME280;42646;51.910;7.724;2023-02-23T09:56:10;100784.03;;;8.64;100.00
39265;BME280;42646;51.910;7.724;2023-02-23T09:58:39;100788.34;;;8.65;100.00
39265;BME280;42646;51.910;7.724;2023-02-23T10:01:42;100782.81;;;8.68;100.00
39265;BME280;42646;51.910;7.724;2023-02-23T10:04:20;100787.03;;;8.70;100.00
39265;BME280;42646;51.910;7.724;2023-02-23T10:06:57;100793.06;;;8.72;100.00
39265;BME280;42646;51.910;7.724;2023-02-23T10:09:40;100789.44;;;8.73;100.00
39265;BME280;42646;51.910;7.724;2023-02-23T10:12:18;100787.63;;;8.74;100.00
39265;BME280;42646;51.910;7.724;2023-02-23T10:15:14;100803.56;;;8.74;100.00
39265;BME280;42646;51.910;7.724;2023-02-23T10:17:53;100802.56;;;8.75;100.00
39265;BME280;42646;51.910;7.724;2023-02-23T10:20:26;100799.78;;;8.76;100.00
39265;BME280;42646;51.910;7.724;2023-02-23T10:23:03;100798.81;;;8.77;100.00
39265;BME280;42646;51.910;7.724;2023-02-23T10:25:35;100807.66;;;8.78;100.00
39265;BME280;42646;51.910;7.724;2023-02-23T10:28:08;100803.06;;;8.80;100.00
39265;BME280;42646;51.910;7.724;2023-02-23T10:30:39;100800.28;;;8.81;100.00
39265;BME280;42646;51.910;7.724;2023-02-23T10:33:13;100804.50;;;8.84;100.00
39265;BME280;42646;51.910;7.724;2023-02-23T10:35:42;100801.13;;;8.82;100.00
39265;BME280;42646;51.910;7.724;2023-02-23T10:38:15;100804.50;;;8.84;100.00
39265;BME280;42646;51.910;7.724;2023-02-23T10:40:45;100803.41;;;8.87;100.00
39265;BME280;42646;51.910;7.724;2023-02-23T10:43:18;100802.56;;;8.86;100.00
39265;BME280;42646;51.910;7.724;2023-02-23T10:45:48;100805.09;;;8.88;100.00
39265;BME280;42646;51.910;7.724;2023-02-23T10:48:18;100799.53;;;8.91;100.00
39265;BME280;42646;51.910;7.724;2023-02-23T10:50:47;100809.06;;;8.93;100.00
39265;BME280;42646;51.910;7.724;2023-02-23T10:53:21;100803.75;;;8.93;100.00
39265;BME280;42646;51.910;7.724;2023-02-23T10:56:00;100808.22;;;8.93;100.00
39265;BME280;42646;51.910;7.724;2023-02-23T10:58:30;100800.97;;;8.95;100.00
39265;BME280;42646;51.910;7.724;2023-02-23T11:01:06;100806.03;;;8.98;100.00
39265;BME280;42646;51.910;7.724;2023-02-23T11:03:37;100809.66;;;8.97;100.00
39265;BME280;42646;51.910;7.724;2023-02-23T11:06:27;100808.56;;;8.99;100.00
39265;BME280;42646;51.910;7.724;2023-02-23T11:08:56;100807.59;;;9.00;100.00
39265;BME280;42646;51.910;7.724;2023-02-23T11:11:27;100808.31;;;9.02;100.00
39265;BME280;42646;51.910;7.724;2023-02-23T11:13:57;100808.06;;;9.05;100.00
39265;BME280;42646;51.910;7.724;2023-02-23T11:16:28;100813.22;;;9.07;100.00
39265;BME280;42646;51.910;7.724;2023-02-23T11:18:58;100811.31;;;9.09;100.00
39265;BME280;42646;51.910;7.724;2023-02-23T11:21:28;100808.91;;;9.06;100.00
39265;BME280;42646;51.910;7.724;2023-02-23T11:24:04;100811.44;;;9.07;100.00
39265;BME280;42646;51.910;7.724;2023-02-23T11:26:38;100816.75;;;9.07;100.00
39265;BME280;42646;51.910;7.724;2023-02-23T11:29:22;100804.44;;;9.06;100.00
39265;BME280;42646;51.910;7.724;2023-02-23T11:31:53;100801.69;;;9.08;100.00
39265;BME280;42646;51.910;7.724;2023-02-23T11:34:28;100800.44;;;9.12;100.00
39265;BME280;42646;51.910;7.724;2023-02-23T11:37:00;100806.00;;;9.09;100.00
39265;BME280;42646;51.910;7.724;2023-02-23T11:39:31;100804.56;;;9.05;100.00
39265;BME280;42646;51.910;7.724;2023-02-23T11:42:09;100811.06;;;9.01;100.00
39265;BME280;42646;51.910;7.724;2023-02-23T11:44:40;100803.50;;;8.96;100.00
39265;BME280;42646;51.910;7.724;2023-02-23T11:47:17;100800.97;;;8.95;100.00
39265;BME280;42646;51.910;7.724;2023-02-23T11:49:48;100807.59;;;8.89;100.00
39265;BME280;42646;51.910;7.724;2023-02-23T11:52:19;100807.03;;;8.86;100.00
39265;BME280;42646;51.910;7.724;2023-02-23T11:54:53;100805.34;;;8.85;100.00
39265;BME280;42646;51.910;7.724;2023-02-23T11:57:23;100799.44;;;8.81;100.00
39265;BME280;42646;51.910;7.724;2023-02-23T12:00:22;100802.34;;;8.78;100.00
39265;BME280;42646;51.910;7.724;2023-02-23T12:02:54;100803.28;;;8.77;100.00
39265;BME280;42646;51.910;7.724;2023-02-23T12:05:26;100797.28;;;8.75;100.00
39265;BME280;42646;51.910;7.724;2023-02-23T12:08:00;100790.16;;;8.75;100.00
39265;BME280;42646;51.910;7.724;2023-02-23T12:10:34;100788.47;;;8.74;100.00
39265;BME280;42646;51.910;7.724;2023-02-23T12:13:13;100789.31;;;8.75;100.00
39265;BME280;42646;51.910;7.724;2023-02-23T12:15:50;100792.47;;;8.69;100.00
39265;BME280;42646;51.910;7.724;2023-02-23T12:18:34;100790.66;;;8.69;100.00
39265;BME280;42646;51.910;7.724;2023-02-23T12:21:14;100788.25;;;8.66;100.00
39265;BME280;42646;51.910;7.724;2023-02-23T12:23:47;100791.84;;;8.65;100.00
39265;BME280;42646;51.910;7.724;2023-02-23T12:26:21;100795.75;;;8.61;100.00
39265;BME280;42646;51.910;7.724;2023-02-23T12:28:54;100786.47;;;8.55;100.00
39265;BME280;42646;51.910;7.724;2023-02-23T12:31:41;100791.88;;;8.54;100.00
39265;BME280;42646;51.910;7.724;2023-02-23T12:34:16;100799.47;;;8.47;100.00
39265;BME280;42646;51.910;7.724;2023-02-23T12:36:58;100801.28;;;8.47;100.00
39265;BME280;42646;51.910;7.724;2023-02-23T12:39:31;100804.06;;;8.45;100.00
39265;BME280;42646;51.910;7.724;2023-02-23T12:42:10;100805.63;;;8.48;100.00
39265;BME280;42646;51.910;7.724;2023-02-23T12:44:43;100804.88;;;8.46;100.00
39265;BME280;42646;51.910;7.724;2023-02-23T12:47:20;100809.47;;;8.44;100.00
39265;BME280;42646;51.910;7.724;2023-02-23T12:49:54;100807.81;;;8.43;100.00
39265;BME280;42646;51.910;7.724;2023-02-23T12:52:35;100804.19;;;8.44;100.00
39265;BME280;42646;51.910;7.724;2023-02-23T12:55:08;100797.91;;;8.45;100.00
39265;BME280;42646;51.910;7.724;2023-02-23T12:57:46;100804.41;;;8.41;100.00
39265;BME280;42646;51.910;7.724;2023-02-23T13:00:34;100800.91;;;8.40;100.00
39265;BME280;42646;51.910;7.724;2023-02-23T13:06:00;100797.19;;;8.43;100.00
39265;BME280;42646;51.910;7.724;2023-02-23T13:08:42;100796.59;;;8.39;100.00
39265;BME280;42646;51.910;7.724;2023-02-23T13:11:31;100798.53;;;8.37;100.00
39265;BME280;42646;51.910;7.724;2023-02-23T13:14:16;100799.50;;;8.36;100.00
39265;BME280;42646;51.910;7.724;2023-02-23T13:16:50;100806.34;;;8.39;100.00
39265;BME280;42646;51.910;7.724;2023-02-23T13:19:25;100797.69;;;8.37;100.00
39265;BME280;42646;51.910;7.724;2023-02-23T13:22:01;100806.34;;;8.39;100.00
39265;BME280;42646;51.910;7.724;2023-02-23T13:24:35;100802.72;;;8.40;100.00
39265;BME280;42646;51.910;7.724;2023-02-23T13:27:13;100813.19;;;8.41;100.00
39265;BME280;42646;51.910;7.724;2023-02-23T13:29:45;100815.84;;;8.41;100.00
39265;BME280;42646;51.910;7.724;2023-02-23T13:32:17;100804.16;;;8.33;100.00
39265;BME280;42646;51.910;7.724;2023-02-23T13:34:49;100814.75;;;8.33;100.00
39265;BME280;42646;51.910;7.724;2023-02-23T13:37:22;100810.06;;;8.25;100.00
39265;BME280;42646;51.910;7.724;2023-02-23T13:40:00;100810.63;;;8.17;100.00
39265;BME280;42646;51.910;7.724;2023-02-23T13:42:38;100819.06;;;8.11;100.00
39265;BME280;42646;51.910;7.724;2023-02-23T13:45:29;100818.34;;;8.09;100.00